Time;durP1;ratioP1;P1;durP2;ratioP2;P2;SDS_P1;SDS_P2;PMS_P1;PMS_P2;Temp;Humidity;BMP_temperature;BMP_pressure;BME280_temperature;BME280_humidity;BME280_pressure;Samples;Min_cycle;Max_cycle;Signal;HPM_P1;HPM_P2
2021/08/05 00:01:22;;;;;;;5.35;3.20;;;;;;;22.35;56.11;97805.56;129491;1096;113605;-81
2021/08/05 00:03:48;;;;;;;5.05;3.23;;;;;;;22.33;56.23;97821.66;129441;1096;113124;-81
2021/08/05 00:06:14;;;;;;;4.33;3.38;;;;;;;22.30;56.11;97804.02;129495;1095;115846;-81
2021/08/05 00:08:40;;;;;;;4.65;3.05;;;;;;;22.29;56.31;97795.02;129483;1097;114163;-80
2021/08/05 00:11:06;;;;;;;4.30;3.08;;;;;;;22.27;56.61;97791.88;129548;1095;22615;-80
2021/08/05 00:13:32;;;;;;;5.53;3.33;;;;;;;22.27;56.49;97793.84;129769;1096;113644;-80
2021/08/05 00:15:58;;;;;;;5.28;2.98;;;;;;;22.25;56.67;97783.29;129482;1096;113900;-80
2021/08/05 00:18:24;;;;;;;7.33;3.18;;;;;;;22.22;56.59;97795.05;129450;1096;113842;-80
2021/08/05 00:20:51;;;;;;;5.60;3.35;;;;;;;22.21;56.73;97779.79;129760;1095;114185;-80
2021/08/05 00:23:17;;;;;;;5.38;3.43;;;;;;;22.20;56.74;97766.45;129579;1096;22518;-80
2021/08/05 00:25:43;;;;;;;4.70;3.08;;;;;;;22.19;56.95;97760.20;129481;1096;113838;-81
2021/08/05 00:28:09;;;;;;;5.18;3.40;;;;;;;22.20;56.85;97755.49;129524;1094;114031;-81
2021/08/05 00:30:35;;;;;;;4.13;3.10;;;;;;;22.19;56.62;97759.42;129507;1095;114258;-81
2021/08/05 00:33:01;;;;;;;5.65;3.20;;;;;;;22.19;56.74;97746.48;129478;1096;114084;-81
2021/08/05 00:35:27;;;;;;;4.35;3.20;;;;;;;22.20;56.68;97741.78;129476;1095;113970;-81
2021/08/05 00:37:53;;;;;;;6.55;3.28;;;;;;;22.19;56.66;97738.27;129603;1096;22994;-81
2021/08/05 00:40:19;;;;;;;3.80;2.88;;;;;;;22.19;56.64;97723.77;129476;1096;113840;-81
2021/08/05 00:42:49;;;;;;;7.65;3.10;;;;;;;22.18;56.52;97723.00;129479;1096;114808;-81
2021/08/05 00:45:16;;;;;;;6.78;3.20;;;;;;;22.18;56.62;97712.03;129459;1096;113915;-81
2021/08/05 00:47:43;;;;;;;6.93;3.48;;;;;;;22.18;56.62;97719.48;129446;1096;114221;-80
2021/08/05 00:50:10;;;;;;;6.10;3.63;;;;;;;22.17;56.56;97726.93;129561;1096;22557;-81
2021/08/05 00:52:37;;;;;;;4.68;3.20;;;;;;;22.15;56.71;97721.05;129471;1096;114000;-82
2021/08/05 00:55:04;;;;;;;5.83;3.23;;;;;;;22.13;57.04;97723.44;129434;1096;113960;-82
2021/08/05 00:57:31;;;;;;;5.75;3.43;;;;;;;22.14;56.87;97724.20;129438;1096;114050;-82
2021/08/05 00:59:57;;;;;;;6.58;3.45;;;;;;;22.14;57.17;97713.24;129451;1095;114379;-82
2021/08/05 01:02:29;;;;;;;5.20;3.25;;;;;;;22.14;57.04;97707.76;129596;1096;22549;-82
2021/08/05 01:05:57;;;;;;;5.83;3.15;;;;;;;22.14;56.93;97705.79;129581;1096;22593;-79
2021/08/05 01:09:24;;;;;;;5.28;3.38;;;;;;;22.16;57.23;97697.92;129749;1095;113596;-78
2021/08/05 01:13:03;;;;;;;4.68;3.48;;;;;;;22.24;57.61;97683.01;129702;1096;113989;-80
2021/08/05 01:16:11;;;;;;;7.65;3.60;;;;;;;22.31;57.48;97679.41;129702;1096;112711;-80
2021/08/05 01:26:57;;;;;;;5.80;3.70;;;;;;;22.43;56.93;97646.00;129792;1096;113726;-79
2021/08/05 01:30:24;;;;;;;5.80;3.45;;;;;;;22.45;56.68;97645.61;129905;1096;22508;-80
2021/08/05 01:33:50;;;;;;;7.85;4.35;;;;;;;22.47;56.70;97644.00;129751;1096;113672;-79
2021/08/05 01:37:17;;;;;;;5.98;4.05;;;;;;;22.47;56.65;97646.74;129749;1096;113839;-79
2021/08/05 01:40:43;;;;;;;8.10;3.93;;;;;;;22.46;56.88;97636.96;129763;1096;113819;-79
2021/08/05 01:44:11;;;;;;;6.05;4.55;;;;;;;22.46;56.54;97638.93;129768;1096;113836;-80
2021/08/05 01:47:29;;;;;;;5.93;4.03;;;;;;;22.46;56.76;97636.19;129782;1095;113897;-79
2021/08/05 01:50:56;;;;;;;7.03;4.48;;;;;;;22.45;56.82;97640.90;129789;1094;113430;-78
2021/08/05 01:54:23;;;;;;;7.65;4.33;;;;;;;22.45;56.94;97631.89;129773;1096;113585;-79
2021/08/05 01:57:57;;;;;;;5.85;4.15;;;;;;;22.44;57.00;97624.83;129778;1096;114054;-79
2021/08/05 02:08:36;;;;;;;7.65;4.20;;;;;;;22.40;56.89;97624.08;129775;1096;113791;-79
2021/08/05 02:12:06;;;;;;;7.68;4.35;;;;;;;22.38;56.96;97615.50;129797;1095;113607;-79
2021/08/05 02:22:32;;;;;;;7.90;4.90;;;;;;;22.33;57.38;97607.72;129706;1095;113819;-80
2021/08/05 02:32:56;;;;;;;8.98;4.88;;;;;;;22.29;57.30;97585.80;129908;1095;22579;-79
2021/08/05 02:36:23;;;;;;;8.10;4.78;;;;;;;22.28;57.23;97587.77;129789;1097;113931;-79
2021/08/05 02:39:50;;;;;;;8.15;4.58;;;;;;;22.27;56.91;97577.19;129777;1096;114128;-80
2021/08/05 02:43:17;;;;;;;8.00;5.40;;;;;;;22.26;57.09;97567.41;129754;1095;114245;-79
2021/08/05 02:46:43;;;;;;;8.25;5.20;;;;;;;22.23;57.14;97570.96;129776;1095;113806;-78
2021/08/05 02:50:10;;;;;;;10.15;5.50;;;;;;;22.19;57.24;97554.53;129762;1095;113835;-79
2021/08/05 02:57:05;;;;;;;9.10;5.65;;;;;;;22.15;57.53;97553.80;129714;1096;113536;-78
2021/08/05 03:00:31;;;;;;;9.90;5.40;;;;;;;22.14;57.88;97546.76;129761;1095;113583;-79
2021/08/05 03:04:04;;;;;;;8.45;5.35;;;;;;;22.10;58.26;97532.28;129705;1095;114272;-79
2021/08/05 03:10:51;;;;;;;9.70;5.25;;;;;;;22.17;58.59;97528.73;129810;1095;113870;-80
2021/08/05 03:14:06;;;;;;;;;;;;;;;;;;;;;
2021/08/05 03:17:37;;;;;;;6.78;5.00;;;;;;;22.18;58.46;97522.05;129757;1096;112692;-80
2021/08/05 03:31:23;;;;;;;12.80;5.43;;;;;;;22.09;58.72;97517.02;129631;1096;113863;-78
2021/08/05 03:34:50;;;;;;;9.00;5.87;;;;;;;22.04;58.89;97520.95;129754;1096;114521;-78
2021/08/05 03:38:16;;;;;;;12.00;5.75;;;;;;;22.01;59.12;97518.27;129779;1096;113827;-78
2021/08/05 03:41:44;;;;;;;10.15;5.50;;;;;;;21.97;59.21;97521.05;129681;1096;114169;-79
2021/08/05 03:45:11;;;;;;;8.50;5.08;;;;;;;21.94;59.21;97521.08;129782;1096;114406;-79
2021/08/05 03:55:32;;;;;;;7.48;5.00;;;;;;;21.86;59.47;97498.44;129778;1096;113844;-79
2021/08/05 03:59:00;;;;;;;9.00;4.93;;;;;;;21.89;59.86;97502.30;129783;1096;113924;-80
2021/08/05 04:02:26;;;;;;;9.00;5.18;;;;;;;21.94;59.69;97516.37;129791;1095;113817;-80
2021/08/05 04:05:53;;;;;;;7.95;5.50;;;;;;;21.96;59.30;97522.20;129752;1097;113431;-78
2021/08/05 04:09:19;;;;;;;10.73;5.68;;;;;;;22.00;59.07;97513.95;129731;1096;113785;-79
2021/08/05 04:12:47;;;;;;;8.73;5.20;;;;;;;22.00;58.79;97519.44;129778;1096;114214;-79
2021/08/05 04:16:15;;;;;;;7.55;5.05;;;;;;;22.00;58.44;97508.47;129728;1095;113831;-78
2021/08/05 04:19:42;;;;;;;8.08;5.20;;;;;;;21.99;58.24;97502.22;129726;1095;113833;-78
2021/08/05 04:23:08;;;;;;;9.15;5.35;;;;;;;22.01;58.24;97496.34;129779;1095;113868;-79
2021/08/05 04:26:35;;;;;;;11.18;5.63;;;;;;;21.99;58.37;97493.22;129756;1096;113847;-78
2021/08/05 04:30:01;;;;;;;9.50;6.15;;;;;;;21.96;58.80;97478.35;129745;1097;113741;-79
2021/08/05 04:40:22;;;;;;;9.50;5.30;;;;;;;21.79;60.07;97469.13;129658;1094;113981;-79
2021/08/05 04:47:18;;;;;;;9.68;5.05;;;;;;;21.76;61.23;97472.66;129783;1096;114038;-79
2021/08/05 04:54:12;;;;;;;7.80;5.30;;;;;;;21.78;61.22;97456.61;129836;1096;22496;-78
2021/08/05 04:57:39;;;;;;;8.35;5.93;;;;;;;21.80;61.43;97450.72;129746;1097;113748;-78
2021/08/05 05:01:05;;;;;;;8.33;6.43;;;;;;;21.80;61.45;97434.27;129736;1096;113996;-78
2021/08/05 05:04:33;;;;;;;9.90;5.75;;;;;;;21.78;61.63;97409.25;129772;1095;114044;-78
2021/08/05 05:14:56;;;;;;;9.80;6.55;;;;;;;21.73;61.55;97415.95;129763;1096;113797;-78
2021/08/05 05:18:22;;;;;;;10.15;5.85;;;;;;;21.71;62.01;97414.80;129745;1095;114185;-78
2021/08/05 05:28:57;;;;;;;8.85;6.30;;;;;;;21.77;62.21;97418.63;129786;1095;113825;-80
2021/08/05 05:35:51;;;;;;;8.83;5.63;;;;;;;21.88;61.62;97391.13;129804;1096;112725;-80
2021/08/05 05:39:20;;;;;;;9.33;5.48;;;;;;;21.91;61.17;97377.39;129830;1095;113746;-80
2021/08/05 05:46:14;;;;;;;9.60;5.88;;;;;;;21.87;61.26;97332.80;129711;1097;114011;-80
2021/08/05 05:49:41;;;;;;;9.65;5.75;;;;;;;21.84;61.25;97336.36;129687;1097;113824;-80
2021/08/05 05:53:08;;;;;;;9.45;5.55;;;;;;;21.78;61.09;97333.30;129718;1096;113861;-78
2021/08/05 05:56:36;;;;;;;9.55;5.88;;;;;;;21.74;61.45;97334.53;129718;1096;113999;-80
2021/08/05 06:00:10;;;;;;;8.50;5.90;;;;;;;21.70;61.50;97351.01;129821;1096;113540;-79
2021/08/05 06:03:39;;;;;;;9.08;5.63;;;;;;;21.66;61.82;97355.75;129550;1096;114114;-79
2021/08/05 06:07:08;;;;;;;7.68;5.15;;;;;;;21.65;61.87;97356.91;129808;1095;114021;-81
2021/08/05 06:10:41;;;;;;;8.40;5.10;;;;;;;21.67;62.18;97364.73;129776;1096;113839;-80
2021/08/05 06:14:00;;;;;;;;;;;;;;;;;;;;;
2021/08/05 06:17:45;;;;;;;;;;;;;;;;;;;;;
2021/08/05 06:21:19;;;;;;;9.68;5.70;;;;;;;21.75;62.37;97374.44;129604;1097;122231;-84
2021/08/05 06:24:38;;;;;;;12.00;5.65;;;;;;;21.76;63.05;97335.66;129759;1094;114750;-83
2021/08/05 06:28:12;;;;;;;11.23;6.83;;;;;;;21.74;63.33;97302.42;129703;1097;114311;-81
2021/08/05 06:31:41;;;;;;;11.30;6.38;;;;;;;21.70;63.55;97287.22;129540;1097;114075;-81
2021/08/05 06:35:06;;;;;;;11.43;6.58;;;;;;;21.63;63.79;97293.55;129742;1096;114129;-80
2021/08/05 06:38:34;;;;;;;9.38;5.53;;;;;;;21.58;64.36;97285.79;129778;1096;113981;-80
2021/08/05 06:45:48;;;;;;;;;;;;;;;;;;;;;
2021/08/05 06:49:04;;;;;;;10.28;7.25;;;;;;;21.47;64.83;97268.69;129682;1096;113173;-83
2021/08/05 06:55:59;;;;;;;11.03;7.95;;;;;;;21.31;65.09;97248.09;129798;1096;114034;-83
2021/08/05 06:59:26;;;;;;;11.43;7.93;;;;;;;21.26;65.25;97240.33;129796;1095;114083;-83
2021/08/05 07:02:54;;;;;;;10.70;7.53;;;;;;;21.17;65.21;97231.80;129812;1095;114396;-83
2021/08/05 07:13:25;;;;;;;11.35;7.00;;;;;;;21.13;65.95;97252.97;129534;1096;114029;-81
2021/08/05 07:16:53;;;;;;;10.45;7.23;;;;;;;21.14;65.95;97245.53;129797;1095;114062;-82
2021/08/05 07:20:20;;;;;;;11.03;6.88;;;;;;;21.11;66.18;97225.23;129809;1096;113994;-81
2021/08/05 07:27:21;;;;;;;10.80;7.50;;;;;;;21.01;66.23;97228.84;129511;1095;113972;-81
2021/08/05 07:30:48;;;;;;;9.50;7.08;;;;;;;20.95;66.46;97247.68;129790;1095;114121;-82
2021/08/05 07:37:51;;;;;;;14.63;7.33;;;;;;;20.90;66.99;97214.48;129768;1095;112969;-80
2021/08/05 07:41:17;;;;;;;11.98;7.70;;;;;;;20.87;67.33;97198.88;129651;1095;114164;-81
2021/08/05 07:44:51;;;;;;;12.00;7.53;;;;;;;20.82;67.44;97197.36;129787;1095;114251;-81
2021/08/05 07:48:19;;;;;;;10.53;8.08;;;;;;;20.77;67.21;97171.22;129484;1095;113919;-80
2021/08/05 07:51:40;;;;;;;10.90;8.10;;;;;;;20.73;67.55;97180.66;129803;1095;114124;-80
2021/08/05 07:55:23;;;;;;;;;;;;;;;;;;;;;
2021/08/05 07:58:40;;;;;;;9.70;6.68;;;;;;;20.68;67.65;97192.05;129545;1095;114042;-82
2021/08/05 08:05:57;;;;;;;12.13;8.10;;;;;;;20.67;67.68;97207.68;129753;1097;113978;-81
2021/08/05 08:09:05;;;;;;;11.50;7.80;;;;;;;20.62;67.68;97221.00;129614;1095;112918;-80
2021/08/05 08:12:31;;;;;;;12.55;7.98;;;;;;;20.55;67.99;97230.03;129811;1095;114120;-81
2021/08/05 08:15:59;;;;;;;12.13;8.28;;;;;;;20.47;68.24;97242.17;129806;1096;114312;-80
2021/08/05 08:23:00;;;;;;;12.38;8.10;;;;;;;20.50;68.77;97276.95;129793;1096;114010;-81
2021/08/05 08:26:33;;;;;;;21.30;12.00;;;;;;;20.50;68.87;97362.50;129501;1095;114033;-81
2021/08/05 08:30:07;;;;;;;20.83;10.93;;;;;;;20.48;68.82;97418.76;129504;1097;114354;-82
2021/08/05 08:33:35;;;;;;;14.75;8.68;;;;;;;20.34;68.77;97420.36;129539;1095;114141;-82
2021/08/05 08:37:02;;;;;;;14.65;8.45;;;;;;;20.17;69.49;97387.65;129753;1096;114269;-81
2021/08/05 08:40:30;;;;;;;14.15;7.78;;;;;;;20.15;70.24;97365.38;129783;1097;114033;-81
2021/08/05 08:43:59;;;;;;;11.40;7.80;;;;;;;20.20;70.62;97341.17;129768;1096;112973;-79
2021/08/05 08:47:28;;;;;;;13.50;8.53;;;;;;;20.27;71.10;97326.66;129795;1095;114410;-80
2021/08/05 08:54:21;;;;;;;13.43;8.43;;;;;;;20.20;71.16;97323.97;129780;1097;22514;-81
2021/08/05 09:04:47;;;;;;;11.60;7.08;;;;;;;20.23;71.27;97309.50;129709;1097;114413;-80
2021/08/05 09:08:15;;;;;;;13.43;7.73;;;;;;;20.32;71.44;97307.13;129728;1096;114020;-81
2021/08/05 09:11:41;;;;;;;13.98;8.23;;;;;;;20.40;71.06;97299.66;129778;1096;114321;-81
2021/08/05 09:15:26;;;;;;;11.53;7.98;;;;;;;20.47;70.87;97283.97;129774;1096;113874;-82
2021/08/05 09:18:54;;;;;;;12.20;7.58;;;;;;;20.54;70.63;97277.70;129818;1095;114724;-80
2021/08/05 09:22:30;;;;;;;10.53;7.18;;;;;;;20.58;70.21;97251.88;129495;1095;114032;-81
2021/08/05 09:26:03;;;;;;;13.70;8.15;;;;;;;20.62;70.10;97210.83;129667;1096;114090;-81
2021/08/05 09:29:43;;;;;;;9.43;6.08;;;;;;;20.68;69.80;97192.81;129737;1096;114112;-86
2021/08/05 09:39:35;;;;;;;11.20;8.40;;;;;;;20.99;69.71;97158.11;129691;1095;113986;-85
2021/08/05 09:43:10;;;;;;;12.15;8.30;;;;;;;21.14;69.41;97153.23;129730;1096;114637;-84
2021/08/05 09:46:50;;;;;;;11.98;9.28;;;;;;;21.26;69.74;97128.08;129726;1095;114115;-85
2021/08/05 10:06:39;;;;;;;11.93;8.20;;;;;;;22.00;69.02;97021.34;129517;1096;113960;-83
2021/08/05 10:10:16;;;;;;;12.25;8.68;;;;;;;22.03;68.26;96986.84;129657;1096;114251;-84
2021/08/05 10:13:38;;;;;;;11.20;8.50;;;;;;;21.97;68.17;96963.86;129676;1096;114042;-83
2021/08/05 10:17:04;;;;;;;13.85;9.30;;;;;;;21.77;67.84;96945.41;129788;1095;114017;-83
2021/08/05 10:23:36;;;;;;;;;;;;;;;;;;;;;
2021/08/05 10:36:40;;;;;;;12.15;8.63;;;;;;;21.08;69.53;97113.83;129740;1096;114246;-81
2021/08/05 10:40:08;;;;;;;13.40;9.25;;;;;;;21.05;69.47;97158.43;129764;1096;114274;-84
2021/08/05 10:43:36;;;;;;;11.10;7.05;;;;;;;21.05;70.28;97197.52;129785;1097;114222;-83
2021/08/05 10:47:08;;;;;;;14.63;10.33;;;;;;;21.02;69.91;97203.03;129775;1095;113977;-83
2021/08/05 10:50:40;;;;;;;15.33;10.20;;;;;;;20.97;70.52;97198.00;129569;1096;114750;-83
2021/08/05 10:54:15;;;;;;;15.30;10.78;;;;;;;20.98;69.79;97175.69;129712;1096;114186;-83
2021/08/05 11:01:32;;;;;;;11.55;9.78;;;;;;;21.14;70.29;97146.98;129726;1096;114252;-82
2021/08/05 11:05:14;;;;;;;14.33;9.85;;;;;;;21.36;70.84;97139.33;129698;1096;114066;-83
2021/08/05 11:08:49;;;;;;;15.33;9.30;;;;;;;21.53;71.13;97147.30;129627;1097;113995;-83
2021/08/05 11:12:24;;;;;;;14.00;10.58;;;;;;;21.63;70.77;97151.09;129649;1096;113725;-83
2021/08/05 11:16:03;;;;;;;15.28;10.88;;;;;;;21.66;70.68;97147.54;129327;1097;114405;-82
2021/08/05 11:19:28;;;;;;;16.30;11.88;;;;;;;21.67;70.34;97143.60;129802;1096;114639;-80
2021/08/05 11:22:55;;;;;;;14.60;11.20;;;;;;;21.66;70.00;97138.55;129489;1096;113097;-81
2021/08/05 11:26:33;;;;;;;17.38;12.15;;;;;;;21.61;70.05;97144.47;129746;1096;114215;-81
2021/08/05 11:30:09;;;;;;;15.50;11.18;;;;;;;21.53;70.32;97152.78;129642;1096;114623;-80
2021/08/05 11:44:25;;;;;;;17.50;12.00;;;;;;;21.40;70.82;97149.05;129200;1097;114461;-83
2021/08/05 11:48:28;;;;;;;;;;;;;;;;;;;;;
2021/08/05 11:52:07;;;;;;;18.48;11.75;;;;;;;21.32;70.89;97147.55;128649;1096;114706;-83
2021/08/05 12:02:32;;;;;;;15.40;11.80;;;;;;;21.29;71.25;97138.19;129660;1095;114214;-84
2021/08/05 12:19:53;;;;;;;15.25;9.78;;;;;;;21.79;71.62;97096.45;129735;1096;113508;-82
2021/08/05 12:27:18;;;;;;;17.10;12.75;;;;;;;21.98;70.41;97119.66;129387;1096;114468;-82
2021/08/05 12:30:54;;;;;;;;;;;;;;;;;;;;;
2021/08/05 12:34:42;;;;;;;17.45;12.85;;;;;;;21.98;69.50;97114.18;129813;1096;114309;-82
2021/08/05 12:38:25;;;;;;;;;;;;;;;;;;;;;
2021/08/05 12:41:43;;;;;;;16.45;13.23;;;;;;;21.85;69.38;97109.68;129690;1096;114198;-82
2021/08/05 12:48:37;;;;;;;16.38;10.63;;;;;;;21.76;69.90;97096.50;129800;1096;114207;-82
2021/08/05 12:52:05;;;;;;;15.95;13.28;;;;;;;21.76;70.21;97094.54;129774;1095;114381;-82
2021/08/05 12:59:11;;;;;;;;;;;;;;;;;;;;;
2021/08/05 13:02:39;;;;;;;16.18;13.18;;;;;;;21.72;69.24;97098.53;129241;1096;114266;-83
2021/08/05 13:06:10;;;;;;;19.43;14.28;;;;;;;21.59;69.39;97095.59;129702;1096;113922;-83
2021/08/05 13:09:50;;;;;;;16.08;11.08;;;;;;;21.54;70.11;97085.11;129746;1096;114280;-83
2021/08/05 13:13:28;;;;;;;17.10;10.35;;;;;;;21.53;70.39;97092.52;128488;1100;114212;-83
2021/08/05 13:16:57;;;;;;;14.55;12.18;;;;;;;21.54;70.34;97093.32;128441;1100;114605;-81
2021/08/05 13:20:42;;;;;;;;;;;;;;;;;;;;;
2021/08/05 13:27:31;;;;;;;;;;;;;;;;;;;;;
2021/08/05 13:30:58;;;;;;;16.55;11.13;;;;;;;21.35;71.19;97080.28;129922;1096;22567;-82
2021/08/05 13:34:35;;;;;;;12.90;9.73;;;;;;;21.28;71.29;97084.63;129787;1095;114035;-82
2021/08/05 13:38:08;;;;;;;18.95;13.15;;;;;;;21.22;71.66;97080.81;129798;1096;114213;-82
2021/08/05 13:41:38;;;;;;;18.30;13.13;;;;;;;21.11;71.97;97085.64;129547;1095;114184;-83
2021/08/05 13:52:28;;;;;;;10.68;6.33;;;;;;;20.83;72.15;97089.50;129569;1096;114657;-82
2021/08/05 13:55:36;;;;;;;9.48;6.58;;;;;;;20.65;72.16;97097.89;129625;1094;114068;-82
2021/08/05 14:02:22;;;;;;;9.90;6.90;;;;;;;20.32;72.01;97096.63;129489;1096;113976;-82
2021/08/05 14:08:32;;;;;;;6.85;4.63;;;;;;;20.19;72.67;97101.80;129729;1095;113924;-83
2021/08/05 14:12:02;;;;;;;9.58;5.95;;;;;;;20.09;72.49;97097.99;129554;1096;113841;-83
2021/08/05 14:18:54;;;;;;;9.00;6.13;;;;;;;20.00;72.65;97092.22;129730;1096;112867;-83
2021/08/05 14:22:24;;;;;;;10.15;5.55;;;;;;;19.99;72.80;97089.88;129799;1096;113848;-83
2021/08/05 14:26:01;;;;;;;;;;;;;;;;;;;;;
2021/08/05 14:29:34;;;;;;;;;;;;;;;;;;;;;
2021/08/05 14:32:53;;;;;;;8.98;6.13;;;;;;;20.19;72.68;97099.07;129563;1096;114373;-83
2021/08/05 14:43:22;;;;;;;6.65;5.23;;;;;;;19.99;73.04;97117.97;129379;1097;114019;-81
2021/08/05 14:46:51;;;;;;;9.08;4.98;;;;;;;20.01;72.96;97126.55;129745;1096;113853;-83
2021/08/05 14:50:24;;;;;;;8.00;5.48;;;;;;;20.05;73.04;97132.00;129801;1095;113882;-83
2021/08/05 14:53:55;;;;;;;8.35;5.78;;;;;;;20.09;72.76;97122.59;129507;1096;113832;-84
2021/08/05 14:57:21;;;;;;;7.53;5.35;;;;;;;20.09;72.82;97130.02;129560;1095;22684;-85
2021/08/05 15:00:48;;;;;;;7.60;5.35;;;;;;;20.06;72.70;97139.78;129776;1095;113466;-83
2021/08/05 15:04:25;;;;;;;;;;;;;;;;;;;;;
2021/08/05 15:07:42;;;;;;;6.68;3.43;;;;;;;19.99;72.94;97158.18;129718;1095;113870;-81
2021/08/05 15:11:09;;;;;;;5.28;3.50;;;;;;;19.93;72.88;97151.60;129774;1096;113840;-81
2021/08/05 15:14:42;;;;;;;5.33;3.58;;;;;;;19.83;72.77;97153.21;129751;1096;113818;-80
2021/08/05 15:18:24;;;;;;;6.05;3.28;;;;;;;19.70;72.87;97168.52;129579;1096;22616;-80
2021/08/05 15:21:50;;;;;;;4.35;2.50;;;;;;;19.50;72.97;97168.98;129606;1095;114001;-81
2021/08/05 15:28:30;;;;;;;;;;;;;;;19.34;73.57;97169.44;129770;1096;114302;-81
2021/08/05 15:46:31;;;;;;;3.40;2.68;;;;;;;19.43;73.70;97173.69;129790;1096;114711;-81
2021/08/05 15:50:05;;;;;;;2.78;2.23;;;;;;;19.62;73.61;97178.70;129792;1096;113809;-84
2021/08/05 15:53:36;;;;;;;1.40;1.30;;;;;;;19.68;73.04;97177.09;129482;1096;114055;-84
2021/08/05 16:00:28;;;;;;;1.60;1.50;;;;;;;19.60;73.05;97159.16;129780;1096;113714;-82
2021/08/05 16:07:34;;;;;;;1.95;1.40;;;;;;;19.84;72.59;97157.48;129545;1096;113871;-84
2021/08/05 16:11:02;;;;;;;1.53;1.43;;;;;;;19.78;72.50;97162.61;129552;1095;114016;-84
2021/08/05 16:23:56;;;;;;;;;;;;;;;;;;;;;
2021/08/05 16:30:03;;;;;;;;;;;;;;;19.29;73.10;97160.87;129896;1096;23350;-85
2021/08/05 16:33:31;;;;;;;2.78;1.68;;;;;;;19.17;73.05;97174.95;129813;1096;99680;-85
2021/08/05 16:36:58;;;;;;;3.10;2.05;;;;;;;19.10;73.21;97175.77;129764;1095;112772;-85
2021/08/05 16:40:24;;;;;;;2.08;1.88;;;;;;;19.02;73.60;97174.20;129774;1096;113804;-85
2021/08/05 16:44:01;;;;;;;6.00;2.18;;;;;;;18.98;73.82;97176.97;129762;1096;113875;-84
2021/08/05 16:47:34;;;;;;;3.25;2.60;;;;;;;18.95;73.79;97183.20;129762;1096;113827;-84
2021/08/05 16:51:13;;;;;;;2.53;2.33;;;;;;;18.96;73.71;97170.34;129450;1096;114255;-85
2021/08/05 16:58:02;;;;;;;5.55;2.45;;;;;;;19.05;73.48;97181.61;129790;1096;114147;-82
2021/08/05 17:01:30;;;;;;;2.43;1.88;;;;;;;19.10;73.59;97203.05;129299;1100;114009;-83
2021/08/05 17:04:56;;;;;;;2.83;2.15;;;;;;;19.11;73.66;97197.19;129380;1100;113834;-85
2021/08/05 17:28:22;;;;;;;2.20;2.00;;;;;;;18.65;74.00;97195.29;129626;1096;115697;-84
2021/08/05 17:48:45;;;;;;;2.00;1.90;;;;;;;18.50;74.49;97203.87;129623;1096;114060;-81
2021/08/05 17:52:30;;;;;;;1.85;1.75;;;;;;;18.50;74.52;97203.87;129555;1096;114114;-83
2021/08/05 17:58:40;;;;;;;4.45;1.90;;;;;;;18.42;74.09;97208.55;129748;1096;113967;-84
2021/08/05 18:02:07;;;;;;;1.90;1.80;;;;;;;18.43;74.22;97209.31;129725;1096;113955;-79
2021/08/05 18:05:33;;;;;;;2.90;1.80;;;;;;;18.43;74.20;97209.31;129710;1096;113932;-82
2021/08/05 18:09:00;;;;;;;3.70;1.90;;;;;;;18.44;74.53;97208.95;129729;1096;113722;-83
2021/08/05 18:12:27;;;;;;;3.70;1.88;;;;;;;18.48;74.35;97215.17;129787;1095;114339;-82
2021/08/05 18:22:57;;;;;;;2.10;1.90;;;;;;;18.30;73.94;97211.66;129761;1095;113948;-82
2021/08/05 18:26:25;;;;;;;2.23;1.93;;;;;;;18.17;74.38;97205.81;129613;1096;113961;-82
2021/08/05 18:30:03;;;;;;;1.73;1.63;;;;;;;18.12;74.68;97203.48;129737;1096;113642;-83
2021/08/05 18:33:31;;;;;;;2.53;1.88;;;;;;;18.07;74.89;97218.23;129679;1096;114038;-82
2021/08/05 18:37:08;;;;;;;;;;;;;;;;;;;;;
2021/08/05 18:43:51;;;;;;;2.05;1.80;;;;;;;17.94;75.11;97238.06;129802;1095;113831;-81
2021/08/05 18:47:25;;;;;;;1.93;1.78;;;;;;;17.89;75.10;97237.27;129765;1094;113938;-81
2021/08/05 18:50:53;;;;;;;2.80;1.55;;;;;;;17.93;75.58;97234.56;129484;1095;113843;-81
2021/08/05 18:54:19;;;;;;;1.95;1.80;;;;;;;17.98;75.40;97225.23;129791;1096;113465;-81
2021/08/05 18:57:48;;;;;;;1.85;1.73;;;;;;;17.93;75.07;97223.67;129740;1096;114081;-82
2021/08/05 19:01:14;;;;;;;1.93;1.73;;;;;;;17.86;75.37;97221.70;129745;1095;113965;-80
2021/08/05 19:04:42;;;;;;;1.90;1.80;;;;;;;17.79;75.36;97215.45;129784;1096;113914;-79
2021/08/05 19:08:10;;;;;;;2.15;1.70;;;;;;;17.78;75.39;97224.80;129795;1096;113843;-80
2021/08/05 19:11:46;;;;;;;;;;;;;;;;;;;;;
2021/08/05 19:15:10;;;;;;;2.28;1.78;;;;;;;17.70;75.37;97218.52;129731;1096;112552;-81
2021/08/05 19:18:37;;;;;;;2.15;1.95;;;;;;;17.63;75.64;97221.98;129451;1095;114050;-79
2021/08/05 19:39:33;;;;;;;1.50;1.40;;;;;;;17.49;74.73;97242.91;129527;1096;113671;-82
2021/08/05 19:43:00;;;;;;;1.88;1.30;;;;;;;17.50;74.80;97244.50;129324;1096;114071;-81
2021/08/05 19:46:26;;;;;;;1.70;1.60;;;;;;;17.53;74.96;97244.52;129734;1095;113863;-81
2021/08/05 19:49:58;;;;;;;2.93;1.60;;;;;;;17.50;75.25;97239.83;129764;1096;113841;-80
2021/08/05 19:53:24;;;;;;;3.83;1.90;;;;;;;17.42;74.76;97252.63;129537;1096;113827;-80
2021/08/05 19:56:50;;;;;;;1.98;1.68;;;;;;;17.40;75.02;97254.16;129742;1095;113671;-80
2021/08/05 20:03:45;;;;;;;1.88;1.53;;;;;;;17.41;74.72;97253.02;129405;1096;113689;-81
2021/08/05 20:07:18;;;;;;;1.75;1.65;;;;;;;17.40;75.02;97254.94;129587;1095;112933;-81
2021/08/05 20:10:46;;;;;;;2.60;1.80;;;;;;;17.36;75.09;97262.30;129419;1096;113964;-80
2021/08/05 20:14:13;;;;;;;4.65;2.10;;;;;;;17.34;75.04;97261.91;129699;1095;112886;-80
2021/08/05 20:17:41;;;;;;;3.45;1.98;;;;;;;17.30;75.00;97263.84;129670;1096;113844;-79
2021/08/05 20:21:07;;;;;;;5.38;2.00;;;;;;;17.28;75.06;97263.42;129672;1096;113966;-80
2021/08/05 20:24:34;;;;;;;2.25;1.90;;;;;;;17.33;75.30;97276.69;129663;1096;113875;-80
2021/08/05 20:27:58;;;;;;;2.18;1.73;;;;;;;17.35;74.93;97276.30;129641;1096;112993;-79
2021/08/05 20:31:25;;;;;;;2.90;2.28;;;;;;;17.33;74.89;97267.72;129491;1095;113884;-79
2021/08/05 20:34:51;;;;;;;2.43;1.90;;;;;;;17.31;74.63;97276.27;129627;1096;113904;-80
2021/08/05 20:38:18;;;;;;;2.53;1.88;;;;;;;17.34;74.77;97267.36;129522;1096;114101;-79
2021/08/05 20:41:44;;;;;;;2.55;1.70;;;;;;;17.41;74.83;97272.84;129517;1096;113631;-79
2021/08/05 20:45:11;;;;;;;3.73;2.08;;;;;;;17.46;74.91;97279.86;129608;1095;113951;-80
2021/08/05 20:48:38;;;;;;;2.93;2.23;;;;;;;17.46;74.52;97279.86;129309;1095;114001;-79
2021/08/05 20:52:05;;;;;;;2.25;2.00;;;;;;;17.50;74.55;97275.21;129659;1096;114113;-80
2021/08/05 20:59:08;;;;;;;;;;;;;;;;;;;;;
2021/08/05 21:09:17;;;;;;;4.63;2.20;;;;;;;17.62;74.02;97268.66;129597;1096;22518;-80
2021/08/05 21:12:44;;;;;;;2.83;2.15;;;;;;;17.62;73.92;97276.82;129634;1096;112719;-80
2021/08/05 21:16:12;;;;;;;3.48;2.23;;;;;;;17.52;73.64;97275.59;129676;1096;113999;-80
2021/08/05 21:20:00;;;;;;;3.20;2.30;;;;;;;17.45;74.18;97278.30;129474;1096;113840;-78
2021/08/05 21:26:28;;;;;;;;;;;;;;;;;;;;;
2021/08/05 21:33:24;;;;;;;4.15;2.60;;;;;;;17.44;74.04;97268.56;129628;1095;114178;-80
2021/08/05 21:40:18;;;;;;;4.23;2.50;;;;;;;17.36;74.03;97264.24;129679;1096;113872;-80
2021/08/05 21:43:37;;;;;;;;;;;;;;;;;;;;;
2021/08/05 21:47:12;;;;;;;3.85;2.63;;;;;;;17.36;74.84;97261.52;129585;1096;112795;-80
2021/08/05 21:50:39;;;;;;;3.70;2.90;;;;;;;17.41;74.75;97253.02;129370;1096;113275;-80
2021/08/05 21:54:05;;;;;;;8.05;3.23;;;;;;;17.39;74.65;97261.55;129610;1096;113733;-80
2021/08/05 21:57:42;;;;;;;7.53;3.40;;;;;;;17.39;74.93;97255.33;129580;1095;113893;-81
2021/08/05 22:01:16;;;;;;;4.15;3.05;;;;;;;17.36;74.22;97245.97;129433;1096;113996;-82
2021/08/05 22:04:50;;;;;;;6.53;3.25;;;;;;;17.32;74.90;97249.84;129586;1096;113883;-83
2021/08/05 22:11:46;;;;;;;5.80;3.65;;;;;;;17.32;74.89;97249.84;129648;1096;113645;-81
2021/08/05 22:18:41;;;;;;;7.08;4.00;;;;;;;17.30;74.78;97247.52;129207;1096;113829;-81
2021/08/05 22:22:14;;;;;;;5.65;3.78;;;;;;;17.25;74.62;97238.91;129612;1096;114041;-82